Time,TemperatureF,DewpointF,PressureIn,WindDirection,WindDirectionDegrees,WindSpeedMPH,WindSpeedGustMPH,Humidity,HourlyPrecipIn,Conditions,Clouds,dailyrainin,SoftwareType,DateUTC
2013-06-30 00:03:00,65.8,60.9,29.79,NE,47,4.6,0.0,84,0.00,,,0.00,WeatherDisplay:10.36,2013-06-30 05:03:00,
2013-06-30 00:08:00,65.8,60.9,29.79,North,351,7.4,7.4,84,0.00,,,0.00,WeatherDisplay:10.36,2013-06-30 05:08:00,
2013-06-30 00:13:00,65.7,61.0,29.79,NE,44,6.9,6.9,85,0.00,,,0.00,WeatherDisplay:10.36,2013-06-30 05:13:00,
2013-06-30 00:18:00,65.7,61.0,29.79,North,351,6.9,6.9,85,0.00,,,0.00,WeatherDisplay:10.36,2013-06-30 05:18:00,
2013-06-30 00:23:00,65.7,61.0,29.79,North,351,4.9,4.9,85,0.00,,,0.00,WeatherDisplay:10.36,2013-06-30 05:23:00,
2013-06-30 00:28:00,65.7,61.4,29.79,North,351,9.2,9.2,86,0.00,,,0.00,WeatherDisplay:10.36,2013-06-30 05:28:00,
2013-06-30 00:33:00,65.7,61.4,29.79,NE,46,5.8,5.8,86,0.00,,,0.00,WeatherDisplay:10.36,2013-06-30 05:33:00,
2013-06-30 00:38:00,65.5,61.2,29.79,North,351,5.8,5.8,86,0.00,,,0.00,WeatherDisplay:10.36,2013-06-30 05:38:00,
2013-06-30 00:43:00,65.5,61.2,29.79,North,351,6.9,6.9,86,0.00,,,0.00,WeatherDisplay:10.36,2013-06-30 05:43:00,
2013-06-30 00:48:00,65.5,61.2,29.79,NE,42,0.0,0.0,86,0.00,,,0.00,WeatherDisplay:10.36,2013-06-30 05:48:00,
2013-06-30 00:53:00,65.5,61.5,29.79,North,351,4.0,4.0,87,0.00,,,0.00,WeatherDisplay:10.36,2013-06-30 05:53:00,
2013-06-30 00:58:00,65.5,61.5,29.79,NE,41,5.8,0.0,87,0.00,,,0.00,WeatherDisplay:10.36,2013-06-30 05:58:00,
2013-06-30 01:03:00,65.5,61.5,30.62,North,351,3.5,0.0,87,0.00,,,0.00,WeatherDisplay:10.36,2013-06-30 06:03:00,
2013-06-30 01:08:00,65.5,61.5,30.62,NE,44,3.6,0.0,87,0.00,,,0.00,WeatherDisplay:10.36,2013-06-30 06:08:00,
2013-06-30 01:13:00,65.5,61.5,30.62,ENE,78,5.8,0.0,87,0.00,,,0.00,WeatherDisplay:10.36,2013-06-30 06:13:00,
2013-06-30 01:18:00,65.5,61.5,30.62,North,351,3.5,0.0,87,0.00,,,0.00,WeatherDisplay:10.36,2013-06-30 06:18:00,
2013-06-30 01:23:00,65.5,61.5,30.62,North,351,7.4,7.4,87,0.00,,,0.00,WeatherDisplay:10.36,2013-06-30 06:23:00,
2013-06-30 01:28:00,65.5,61.5,30.62,North,351,0.0,0.0,87,0.00,,,0.00,WeatherDisplay:10.36,2013-06-30 06:28:00,
2013-06-30 01:33:00,65.3,61.3,29.79,NE,42,0.0,0.0,87,0.00,,,0.00,WeatherDisplay:10.36,2013-06-30 06:33:00,
2013-06-30 01:38:00,65.3,61.7,29.79,NE,45,4.0,0.0,88,0.00,,,0.00,WeatherDisplay:10.36,2013-06-30 06:38:00,
2013-06-30 01:43:00,65.3,61.3,29.79,NE,44,5.8,5.8,87,0.00,,,0.00,WeatherDisplay:10.36,2013-06-30 06:43:00,
2013-06-30 01:48:00,65.3,61.3,29.79,NE,44,0.0,0.0,87,0.00,,,0.00,WeatherDisplay:10.36,2013-06-30 06:48:00,
2013-06-30 01:53:00,65.3,61.7,29.79,NE,46,4.9,0.0,88,0.00,,,0.00,WeatherDisplay:10.36,2013-06-30 06:53:00,
2013-06-30 01:58:00,65.3,61.7,29.79,North,351,5.8,0.0,88,0.00,,,0.00,WeatherDisplay:10.36,2013-06-30 06:58:00,
2013-06-30 02:03:00,65.3,61.7,29.79,South,175,0.0,0.0,88,0.00,,,0.00,WeatherDisplay:10.36,2013-06-30 07:03:00,
2013-06-30 02:08:00,65.3,61.7,29.79,NE,44,8.1,8.1,88,0.00,,,0.00,WeatherDisplay:10.36,2013-06-30 07:08:00,
2013-06-30 02:13:00,65.3,61.7,29.79,NE,44,6.9,6.9,88,0.00,,,0.00,WeatherDisplay:10.36,2013-06-30 07:13:00,
2013-06-30 02:18:00,65.3,61.7,30.62,NW,310,8.3,8.3,88,0.00,,,0.00,WeatherDisplay:10.36,2013-06-30 07:18:00,
2013-06-30 02:23:00,65.3,61.7,30.62,North,351,9.2,9.2,88,0.00,,,0.00,WeatherDisplay:10.36,2013-06-30 07:23:00,
2013-06-30 02:28:00,65.3,61.7,30.62,NE,42,0.0,0.0,88,0.00,,,0.00,WeatherDisplay:10.36,2013-06-30 07:28:00,
2013-06-30 02:33:00,65.3,61.7,29.82,NE,45,6.3,6.3,88,0.00,,,0.00,WeatherDisplay:10.36,2013-06-30 07:33:00,
2013-06-30 02:38:00,65.3,61.7,29.82,NE,45,0.0,0.0,88,0.00,,,0.00,WeatherDisplay:10.36,2013-06-30 07:38:00,
2013-06-30 02:43:00,65.5,61.8,29.82,North,351,9.2,9.2,88,0.00,,,0.00,WeatherDisplay:10.36,2013-06-30 07:43:00,
2013-06-30 02:48:00,65.3,61.7,29.82,NE,44,4.5,4.5,88,0.00,,,0.00,WeatherDisplay:10.36,2013-06-30 07:48:00,
2013-06-30 02:53:00,65.5,61.8,29.82,North,351,6.3,6.3,88,0.00,,,0.00,WeatherDisplay:10.36,2013-06-30 07:53:00,
2013-06-30 02:58:00,65.5,61.8,29.82,NE,43,3.5,0.0,88,0.00,,,0.00,WeatherDisplay:10.36,2013-06-30 07:58:00,
2013-06-30 03:03:00,65.5,61.8,29.82,North,351,5.4,5.4,88,0.00,,,0.00,WeatherDisplay:10.36,2013-06-30 08:03:00,
2013-06-30 03:08:00,65.5,61.8,29.82,North,351,8.3,8.3,88,0.00,,,0.00,WeatherDisplay:10.36,2013-06-30 08:08:00,
2013-06-30 03:13:00,65.3,61.7,29.82,NE,45,4.6,4.6,88,0.00,,,0.00,WeatherDisplay:10.36,2013-06-30 08:13:00,
2013-06-30 03:18:00,65.3,61.7,29.82,North,351,6.3,6.3,88,0.00,,,0.00,WeatherDisplay:10.36,2013-06-30 08:18:00,
2013-06-30 03:23:00,65.3,61.7,29.82,NE,43,0.0,0.0,88,0.00,,,0.00,WeatherDisplay:10.36,2013-06-30 08:23:00,
2013-06-30 03:28:00,65.3,61.7,29.82,North,351,4.9,0.0,88,0.00,,,0.00,WeatherDisplay:10.36,2013-06-30 08:28:00,
2013-06-30 03:33:00,65.3,61.7,30.65,North,351,3.5,3.5,88,0.00,,,0.00,WeatherDisplay:10.36,2013-06-30 08:33:00,
2013-06-30 03:38:00,65.5,61.8,30.65,North,351,4.5,0.0,88,0.00,,,0.00,WeatherDisplay:10.36,2013-06-30 08:38:00,
2013-06-30 03:43:00,65.5,61.8,30.65,North,351,2.3,0.0,88,0.00,,,0.00,WeatherDisplay:10.36,2013-06-30 08:43:00,
2013-06-30 03:48:00,65.5,61.8,29.82,NE,43,0.0,0.0,88,0.00,,,0.00,WeatherDisplay:10.36,2013-06-30 08:48:00,
2013-06-30 03:53:00,65.5,61.8,29.82,North,351,6.9,6.9,88,0.00,,,0.00,WeatherDisplay:10.36,2013-06-30 08:53:00,
2013-06-30 03:58:00,65.5,61.8,29.82,NNE,27,4.9,4.9,88,0.00,,,0.00,WeatherDisplay:10.36,2013-06-30 08:58:00,
2013-06-30 04:03:00,65.5,61.8,29.82,NE,45,6.9,6.9,88,0.00,,,0.00,WeatherDisplay:10.36,2013-06-30 09:03:00,
2013-06-30 04:08:00,65.3,61.7,29.82,NE,46,7.8,7.8,88,0.00,,,0.00,WeatherDisplay:10.36,2013-06-30 09:08:00,
2013-06-30 04:13:00,65.5,61.8,29.82,North,351,5.8,5.8,88,0.00,,,0.00,WeatherDisplay:10.36,2013-06-30 09:13:00,
2013-06-30 04:18:00,65.5,61.8,30.62,North,351,3.5,0.0,88,0.00,,,0.00,WeatherDisplay:10.36,2013-06-30 09:18:00,
2013-06-30 04:23:00,65.5,61.8,30.62,North,351,2.7,0.0,88,0.00,,,0.00,WeatherDisplay:10.36,2013-06-30 09:23:00,
2013-06-30 04:28:00,65.5,61.8,30.62,North,351,0.0,0.0,88,0.00,,,0.00,WeatherDisplay:10.36,2013-06-30 09:28:00,
2013-06-30 04:33:00,65.5,61.8,30.56,NE,44,5.8,5.8,88,0.00,,,0.00,WeatherDisplay:10.36,2013-06-30 09:33:00,
2013-06-30 04:38:00,65.5,61.8,30.56,NE,43,3.5,0.0,88,0.00,,,0.00,WeatherDisplay:10.36,2013-06-30 09:38:00,
2013-06-30 04:43:00,65.7,61.7,30.56,North,351,5.8,0.0,87,0.00,,,0.00,WeatherDisplay:10.36,2013-06-30 09:43:00,
2013-06-30 04:48:00,65.7,62.0,30.65,North,351,5.8,5.8,88,0.00,,,0.00,WeatherDisplay:10.36,2013-06-30 09:48:00,
2013-06-30 04:53:00,65.7,61.7,30.65,North,351,3.6,3.6,87,0.00,,,0.00,WeatherDisplay:10.36,2013-06-30 09:53:00,
2013-06-30 04:58:00,65.7,61.7,30.65,NE,45,0.0,0.0,87,0.00,,,0.00,WeatherDisplay:10.36,2013-06-30 09:58:00,
2013-06-30 05:03:00,65.7,61.7,29.85,North,351,5.4,5.4,87,0.00,,,0.00,WeatherDisplay:10.36,2013-06-30 10:03:00,
2013-06-30 05:09:00,65.7,61.7,29.85,North,351,5.4,5.4,87,0.00,,,0.00,WeatherDisplay:10.36,2013-06-30 10:09:00,
2013-06-30 05:14:00,65.7,61.4,29.85,NE,46,8.1,0.0,86,0.00,,,0.00,WeatherDisplay:10.36,2013-06-30 10:14:00,
2013-06-30 05:20:00,65.7,61.4,29.85,NE,46,8.1,0.0,86,0.00,,,0.00,WeatherDisplay:10.36,2013-06-30 10:20:00,
2013-06-30 05:26:00,65.7,61.4,30.68,NE,44,8.1,0.0,86,0.00,,,0.00,WeatherDisplay:10.36,2013-06-30 10:26:00,
2013-06-30 05:31:00,65.5,61.2,30.68,NE,43,6.9,6.9,86,0.00,,,0.00,WeatherDisplay:10.36,2013-06-30 10:31:00,
2013-06-30 05:36:00,65.7,61.4,29.85,North,351,4.5,0.0,86,0.00,,,0.00,WeatherDisplay:10.36,2013-06-30 10:36:00,
2013-06-30 05:41:00,65.5,61.2,29.85,NE,43,3.5,0.0,86,0.00,,,0.00,WeatherDisplay:10.36,2013-06-30 10:41:00,
2013-06-30 05:46:00,65.7,61.4,29.85,SSW,205,6.3,0.0,86,0.00,,,0.00,WeatherDisplay:10.36,2013-06-30 10:46:00,
2013-06-30 05:51:00,65.5,60.8,30.65,North,351,0.0,0.0,85,0.00,,,0.00,WeatherDisplay:10.36,2013-06-30 10:51:00,
2013-06-30 05:56:00,65.7,61.0,30.65,NE,43,0.0,0.0,85,0.00,,,0.00,WeatherDisplay:10.36,2013-06-30 10:56:00,
2013-06-30 06:01:00,65.7,61.0,30.65,NE,44,0.0,0.0,85,0.00,,,0.00,WeatherDisplay:10.36,2013-06-30 11:01:00,
2013-06-30 06:06:00,65.8,61.2,30.65,North,351,4.6,4.6,85,0.00,,,0.00,WeatherDisplay:10.36,2013-06-30 11:06:00,
2013-06-30 06:11:00,65.7,61.0,30.65,North,351,2.7,0.0,85,0.00,,,0.00,WeatherDisplay:10.36,2013-06-30 11:11:00,
2013-06-30 06:16:00,65.8,60.9,30.65,NE,43,6.9,0.0,84,0.00,,,0.00,WeatherDisplay:10.36,2013-06-30 11:16:00,
2013-06-30 06:21:00,65.8,60.9,29.85,North,351,4.9,4.9,84,0.00,,,0.00,WeatherDisplay:10.36,2013-06-30 11:21:00,
2013-06-30 06:27:00,65.8,60.9,29.85,North,351,7.4,7.4,84,0.00,,,0.00,WeatherDisplay:10.36,2013-06-30 11:27:00,
2013-06-30 06:32:00,65.8,60.9,29.85,NE,46,6.3,6.3,84,0.00,,,0.00,WeatherDisplay:10.36,2013-06-30 11:32:00,
2013-06-30 06:37:00,65.8,60.5,29.85,North,351,7.4,0.0,83,0.00,,,0.00,WeatherDisplay:10.36,2013-06-30 11:37:00,
2013-06-30 06:42:00,65.8,60.2,29.85,North,351,3.6,0.0,82,0.00,,,0.00,WeatherDisplay:10.36,2013-06-30 11:42:00,
2013-06-30 06:47:00,65.8,60.2,29.85,NE,41,4.9,4.9,82,0.00,,,0.00,WeatherDisplay:10.36,2013-06-30 11:47:00,
2013-06-30 06:52:00,65.8,60.2,29.85,North,351,7.4,7.4,82,0.00,,,0.00,WeatherDisplay:10.36,2013-06-30 11:52:00,
2013-06-30 06:57:00,65.8,60.2,29.85,ESE,109,6.9,6.9,82,0.00,,,0.00,WeatherDisplay:10.36,2013-06-30 11:57:00,
2013-06-30 07:02:00,66.0,60.4,29.85,NE,45,6.9,6.9,82,0.00,,,0.00,WeatherDisplay:10.36,2013-06-30 12:02:00,
2013-06-30 07:07:00,66.0,60.4,29.85,NE,42,4.6,0.0,82,0.00,,,0.00,WeatherDisplay:10.36,2013-06-30 12:07:00,
2013-06-30 07:12:00,66.0,60.0,29.85,NE,43,7.4,7.4,81,0.00,,,0.00,WeatherDisplay:10.36,2013-06-30 12:12:00,
2013-06-30 07:17:00,66.0,60.0,29.85,NE,44,6.9,6.9,81,0.00,,,0.00,WeatherDisplay:10.36,2013-06-30 12:17:00,
2013-06-30 07:22:00,65.8,59.8,29.85,NE,43,3.5,0.0,81,0.00,,,0.00,WeatherDisplay:10.36,2013-06-30 12:22:00,
2013-06-30 07:27:00,66.0,60.0,29.85,NE,44,4.9,4.9,81,0.00,,,0.00,WeatherDisplay:10.36,2013-06-30 12:27:00,
2013-06-30 07:33:00,66.0,59.7,30.68,North,351,6.9,6.9,80,0.00,,,0.00,WeatherDisplay:10.36,2013-06-30 12:33:00,
2013-06-30 07:38:00,66.0,59.7,30.68,NE,44,5.8,5.8,80,0.00,,,0.00,WeatherDisplay:10.36,2013-06-30 12:38:00,
2013-06-30 07:43:00,66.4,60.4,30.68,NE,45,8.1,8.1,81,0.00,,,0.00,WeatherDisplay:10.36,2013-06-30 12:43:00,
2013-06-30 07:48:00,66.6,60.5,29.85,North,351,6.9,6.9,81,0.00,,,0.00,WeatherDisplay:10.36,2013-06-30 12:48:00,
2013-06-30 07:53:00,66.7,60.4,29.85,NE,45,8.3,8.3,80,0.00,,,0.00,WeatherDisplay:10.36,2013-06-30 12:53:00,
2013-06-30 07:58:00,66.9,60.2,29.85,NE,43,3.5,0.0,79,0.00,,,0.00,WeatherDisplay:10.36,2013-06-30 12:58:00,
2013-06-30 08:03:00,67.1,60.0,30.68,North,351,5.8,5.8,78,0.00,,,0.00,WeatherDisplay:10.36,2013-06-30 13:03:00,
2013-06-30 08:08:00,67.3,59.8,30.68,North,351,7.4,7.4,77,0.00,,,0.00,WeatherDisplay:10.36,2013-06-30 13:08:00,
2013-06-30 08:13:00,67.3,59.5,30.68,NE,45,5.8,5.8,76,0.00,,,0.00,WeatherDisplay:10.36,2013-06-30 13:13:00,
2013-06-30 08:18:00,67.6,59.8,29.85,NE,42,0.0,0.0,76,0.00,,,0.00,WeatherDisplay:10.36,2013-06-30 13:18:00,
2013-06-30 08:23:00,68.0,60.2,29.85,NE,44,5.8,5.8,76,0.00,,,0.00,WeatherDisplay:10.36,2013-06-30 13:23:00,
2013-06-30 08:28:00,68.4,60.1,29.85,NE,44,9.2,9.2,75,0.00,,,0.00,WeatherDisplay:10.36,2013-06-30 13:28:00,
2013-06-30 08:33:00,68.5,59.5,30.59,NE,45,3.6,0.0,73,0.00,,,0.00,WeatherDisplay:10.36,2013-06-30 13:33:00,
2013-06-30 08:39:00,69.1,59.3,30.59,NE,44,7.8,7.8,71,0.00,,,0.00,WeatherDisplay:10.36,2013-06-30 13:39:00,
2013-06-30 08:44:00,69.6,59.0,30.59,NE,44,0.0,0.0,69,0.00,,,0.00,WeatherDisplay:10.36,2013-06-30 13:44:00,
2013-06-30 08:49:00,70.2,59.5,29.88,North,351,6.3,6.3,69,0.00,,,0.00,WeatherDisplay:10.36,2013-06-30 13:49:00,
2013-06-30 08:54:00,70.5,59.0,29.88,NE,44,3.1,0.0,67,0.00,,,0.00,WeatherDisplay:10.36,2013-06-30 13:54:00,
2013-06-30 08:59:00,71.2,58.0,29.88,NE,44,4.9,4.9,63,0.00,,,0.00,WeatherDisplay:10.36,2013-06-30 13:59:00,
2013-06-30 09:04:00,71.6,57.4,29.88,NE,44,7.4,7.4,61,0.00,,,0.00,WeatherDisplay:10.36,2013-06-30 14:04:00,
2013-06-30 09:09:00,72.0,56.4,29.88,NE,43,6.9,6.9,58,0.00,,,0.00,WeatherDisplay:10.36,2013-06-30 14:09:00,
2013-06-30 09:14:00,72.0,55.9,29.88,North,351,9.6,9.6,57,0.00,,,0.00,WeatherDisplay:10.36,2013-06-30 14:14:00,
2013-06-30 09:19:00,72.0,55.4,29.88,NE,45,6.9,6.9,56,0.00,,,0.00,WeatherDisplay:10.36,2013-06-30 14:19:00,
2013-06-30 09:24:00,72.1,55.6,29.88,NE,42,3.5,3.6,56,0.00,,,0.00,WeatherDisplay:10.36,2013-06-30 14:24:00,
2013-06-30 09:29:00,72.9,56.2,29.88,North,351,6.9,6.9,56,0.00,,,0.00,WeatherDisplay:10.36,2013-06-30 14:29:00,
2013-06-30 09:34:00,73.0,55.4,29.88,North,351,6.9,6.9,54,0.00,,,0.00,WeatherDisplay:10.36,2013-06-30 14:34:00,
2013-06-30 09:39:00,72.7,54.0,29.88,North,351,10.5,10.5,52,0.00,,,0.00,WeatherDisplay:10.36,2013-06-30 14:39:00,
2013-06-30 09:44:00,72.1,54.6,29.88,NNE,27,7.8,0.0,54,0.00,,,0.00,WeatherDisplay:10.36,2013-06-30 14:44:00,
2013-06-30 09:49:00,72.0,54.9,29.88,NE,43,6.9,6.9,55,0.00,,,0.00,WeatherDisplay:10.36,2013-06-30 14:49:00,
2013-06-30 09:54:00,72.3,54.7,29.88,NE,45,3.6,0.0,54,0.00,,,0.00,WeatherDisplay:10.36,2013-06-30 14:54:00,
2013-06-30 09:59:00,72.7,54.6,29.88,North,351,5.8,5.8,53,0.00,,,0.00,WeatherDisplay:10.36,2013-06-30 14:59:00,
2013-06-30 10:04:00,72.5,53.9,29.88,North,351,8.3,0.0,52,0.00,,,0.00,WeatherDisplay:10.36,2013-06-30 15:04:00,
2013-06-30 10:09:00,72.3,54.2,29.88,NNE,27,6.3,6.3,53,0.00,,,0.00,WeatherDisplay:10.36,2013-06-30 15:09:00,
2013-06-30 10:14:00,72.5,54.4,29.88,NE,45,2.7,0.0,53,0.00,,,0.00,WeatherDisplay:10.36,2013-06-30 15:14:00,
2013-06-30 10:19:00,72.9,53.7,29.88,NNE,28,8.1,8.1,51,0.00,,,0.00,WeatherDisplay:10.36,2013-06-30 15:19:00,
2013-06-30 10:24:00,73.0,53.3,29.88,North,351,11.5,11.5,50,0.00,,,0.00,WeatherDisplay:10.36,2013-06-30 15:24:00,
2013-06-30 10:29:00,72.7,53.5,29.88,North,351,3.6,0.0,51,0.00,,,0.00,WeatherDisplay:10.36,2013-06-30 15:29:00,
2013-06-30 10:34:00,72.7,54.0,30.68,West,259,3.6,0.0,52,0.00,,,0.00,WeatherDisplay:10.36,2013-06-30 15:34:00,
2013-06-30 10:39:00,72.7,54.0,30.68,North,351,9.2,0.0,52,0.00,,,0.00,WeatherDisplay:10.36,2013-06-30 15:39:00,
2013-06-30 10:44:00,72.5,53.9,30.68,North,351,6.9,0.0,52,0.00,,,0.00,WeatherDisplay:10.36,2013-06-30 15:44:00,
2013-06-30 10:49:00,72.3,54.2,30.70,NE,45,6.9,0.0,53,0.00,,,0.00,WeatherDisplay:10.36,2013-06-30 15:49:00,
2013-06-30 10:54:00,72.1,55.1,30.70,North,351,4.9,0.0,55,0.00,,,0.00,WeatherDisplay:10.36,2013-06-30 15:54:00,
2013-06-30 10:59:00,72.5,54.9,30.70,North,351,4.9,4.9,54,0.00,,,0.00,WeatherDisplay:10.36,2013-06-30 15:59:00,
2013-06-30 11:04:00,72.5,54.9,30.74,North,351,0.0,0.0,54,0.00,,,0.00,WeatherDisplay:10.36,2013-06-30 16:04:00,
2013-06-30 11:09:00,72.9,55.7,30.74,North,351,0.0,0.0,55,0.00,,,0.00,WeatherDisplay:10.36,2013-06-30 16:09:00,
2013-06-30 11:14:00,73.0,55.4,30.74,NNE,27,6.3,0.0,54,0.00,,,0.00,WeatherDisplay:10.36,2013-06-30 16:14:00,
2013-06-30 11:19:00,73.0,55.9,29.91,North,351,3.1,0.0,55,0.00,,,0.00,WeatherDisplay:10.36,2013-06-30 16:19:00,
2013-06-30 11:24:00,73.0,55.4,29.91,NE,42,3.6,0.0,54,0.00,,,0.00,WeatherDisplay:10.36,2013-06-30 16:24:00,
2013-06-30 11:29:00,73.0,54.9,29.91,NE,44,10.5,10.5,53,0.00,,,0.00,WeatherDisplay:10.36,2013-06-30 16:29:00,
2013-06-30 11:34:00,73.0,54.9,30.70,NE,43,3.5,0.0,53,0.00,,,0.00,WeatherDisplay:10.36,2013-06-30 16:34:00,
2013-06-30 11:39:00,73.6,55.9,30.70,North,351,2.7,0.0,54,0.00,,,0.00,WeatherDisplay:10.36,2013-06-30 16:39:00,
2013-06-30 11:44:00,73.6,55.9,30.70,North,351,0.0,0.0,54,0.00,,,0.00,WeatherDisplay:10.36,2013-06-30 16:44:00,
2013-06-30 11:49:00,74.3,57.1,30.70,North,351,3.5,0.0,55,0.00,,,0.00,WeatherDisplay:10.36,2013-06-30 16:49:00,
2013-06-30 11:54:00,74.7,55.9,30.70,North,351,5.4,0.0,52,0.00,,,0.00,WeatherDisplay:10.36,2013-06-30 16:54:00,
2013-06-30 11:59:00,74.7,54.2,30.70,SE,137,4.6,4.6,49,0.00,,,0.00,WeatherDisplay:10.36,2013-06-30 16:59:00,
2013-06-30 12:04:00,74.3,55.0,29.91,NE,43,8.1,8.1,51,0.00,,,0.00,WeatherDisplay:10.36,2013-06-30 17:04:00,
2013-06-30 12:09:00,74.3,55.0,29.91,NE,44,6.9,6.9,51,0.00,,,0.00,WeatherDisplay:10.36,2013-06-30 17:09:00,
2013-06-30 12:14:00,74.5,54.6,29.91,North,351,4.6,4.6,50,0.00,,,0.00,WeatherDisplay:10.36,2013-06-30 17:14:00,
2013-06-30 12:19:00,74.7,55.3,29.91,NE,43,5.8,5.8,51,0.00,,,0.00,WeatherDisplay:10.36,2013-06-30 17:19:00,
2013-06-30 12:24:00,74.8,54.4,29.91,North,351,9.6,9.6,49,0.00,,,0.00,WeatherDisplay:10.36,2013-06-30 17:24:00,
2013-06-30 12:29:00,75.0,55.1,29.91,NE,44,4.0,4.0,50,0.00,,,0.00,WeatherDisplay:10.36,2013-06-30 17:29:00,
2013-06-30 12:34:00,75.0,55.1,29.91,WNW,302,6.9,0.0,50,0.00,,,0.00,WeatherDisplay:10.36,2013-06-30 17:34:00,
2013-06-30 12:40:00,74.8,54.4,29.91,NNE,27,6.9,6.9,49,0.00,,,0.00,WeatherDisplay:10.36,2013-06-30 17:40:00,
2013-06-30 12:45:00,74.8,53.8,29.91,NE,43,9.2,9.2,48,0.00,,,0.00,WeatherDisplay:10.36,2013-06-30 17:45:00,
2013-06-30 12:50:00,74.8,54.4,29.91,North,351,9.2,9.2,49,0.00,,,0.00,WeatherDisplay:10.36,2013-06-30 17:50:00,
2013-06-30 12:55:00,75.0,55.1,29.91,NNE,27,6.9,6.9,50,0.00,,,0.00,WeatherDisplay:10.36,2013-06-30 17:55:00,
2013-06-30 13:00:00,75.4,55.4,29.91,NE,44,8.3,8.3,50,0.00,,,0.00,WeatherDisplay:10.36,2013-06-30 18:00:00,
2013-06-30 13:06:00,75.4,54.3,30.70,NNE,27,10.9,10.9,48,0.00,,,0.00,WeatherDisplay:10.36,2013-06-30 18:06:00,
2013-06-30 13:11:00,75.7,54.1,30.70,NNE,28,6.7,6.7,47,0.00,,,0.00,WeatherDisplay:10.36,2013-06-30 18:11:00,
2013-06-30 13:16:00,75.9,53.0,30.70,NE,44,6.9,6.9,45,0.00,,,0.00,WeatherDisplay:10.36,2013-06-30 18:16:00,
2013-06-30 13:21:00,75.9,53.6,30.70,NE,43,5.8,5.8,46,0.00,,,0.00,WeatherDisplay:10.36,2013-06-30 18:21:00,
2013-06-30 13:26:00,76.1,53.8,30.70,NE,42,5.8,5.8,46,0.00,,,0.00,WeatherDisplay:10.36,2013-06-30 18:26:00,
2013-06-30 13:31:00,76.3,54.6,30.70,NE,46,9.2,9.2,47,0.00,,,0.00,WeatherDisplay:10.36,2013-06-30 18:31:00,
2013-06-30 13:36:00,76.5,53.5,29.88,NE,43,6.9,6.9,45,0.00,,,0.00,WeatherDisplay:10.36,2013-06-30 18:36:00,
2013-06-30 13:41:00,76.6,53.7,29.88,NE,43,5.8,5.8,45,0.00,,,0.00,WeatherDisplay:10.36,2013-06-30 18:41:00,
2013-06-30 13:46:00,76.8,53.9,29.88,NE,43,6.3,6.3,45,0.00,,,0.00,WeatherDisplay:10.36,2013-06-30 18:46:00,
2013-06-30 13:51:00,76.8,53.3,29.88,NE,44,12.7,12.7,44,0.00,,,0.00,WeatherDisplay:10.36,2013-06-30 18:51:00,
2013-06-30 13:56:00,76.8,53.3,29.88,North,351,6.9,6.9,44,0.00,,,0.00,WeatherDisplay:10.36,2013-06-30 18:56:00,
2013-06-30 14:01:00,77.2,52.9,29.88,NE,43,9.2,9.2,43,0.00,,,0.00,WeatherDisplay:10.36,2013-06-30 19:01:00,
2013-06-30 14:06:00,77.4,53.1,29.88,North,351,6.9,6.9,43,0.00,,,0.00,WeatherDisplay:10.36,2013-06-30 19:06:00,
2013-06-30 14:11:00,77.5,53.3,29.88,NNE,31,5.8,6.3,43,0.00,,,0.00,WeatherDisplay:10.36,2013-06-30 19:11:00,
2013-06-30 14:16:00,76.8,52.6,29.88,North,351,12.7,12.7,43,0.00,,,0.00,WeatherDisplay:10.36,2013-06-30 19:16:00,
2013-06-30 14:21:00,76.3,53.4,29.88,North,351,6.3,6.3,45,0.00,,,0.00,WeatherDisplay:10.36,2013-06-30 19:21:00,
2013-06-30 14:26:00,76.5,52.9,29.88,NE,42,11.5,11.5,44,0.00,,,0.00,WeatherDisplay:10.36,2013-06-30 19:26:00,
2013-06-30 14:31:00,76.5,52.3,29.88,NNE,27,10.5,10.5,43,0.00,,,0.00,WeatherDisplay:10.36,2013-06-30 19:31:00,
2013-06-30 14:36:00,76.3,52.1,29.88,NE,43,9.6,9.6,43,0.00,,,0.00,WeatherDisplay:10.36,2013-06-30 19:36:00,
2013-06-30 14:41:00,75.9,52.4,29.88,North,351,7.4,7.4,44,0.00,,,0.00,WeatherDisplay:10.36,2013-06-30 19:41:00,
2013-06-30 14:46:00,75.9,53.6,29.88,North,351,4.9,0.0,46,0.00,,,0.00,WeatherDisplay:10.36,2013-06-30 19:46:00,
2013-06-30 14:51:00,75.7,52.9,30.70,NE,43,6.9,6.9,45,0.00,,,0.00,WeatherDisplay:10.36,2013-06-30 19:51:00,
2013-06-30 14:56:00,75.7,54.1,30.70,North,351,8.7,8.7,47,0.00,,,0.00,WeatherDisplay:10.36,2013-06-30 19:56:00,
2013-06-30 15:01:00,75.9,54.2,30.70,North,351,7.4,7.4,47,0.00,,,0.00,WeatherDisplay:10.36,2013-06-30 20:01:00,
2013-06-30 15:06:00,76.1,55.5,30.68,NE,43,8.1,8.1,49,0.00,,,0.00,WeatherDisplay:10.36,2013-06-30 20:06:00,
2013-06-30 15:11:00,76.6,54.3,30.68,North,351,9.2,9.2,46,0.00,,,0.00,WeatherDisplay:10.36,2013-06-30 20:11:00,
2013-06-30 15:16:00,76.8,54.5,30.68,North,351,5.8,5.8,46,0.00,,,0.00,WeatherDisplay:10.36,2013-06-30 20:16:00,
2013-06-30 15:21:00,76.6,54.3,30.70,North,351,5.8,5.8,46,0.00,,,0.00,WeatherDisplay:10.36,2013-06-30 20:21:00,
2013-06-30 15:26:00,76.5,54.1,30.70,North,351,6.3,6.3,46,0.00,,,0.00,WeatherDisplay:10.36,2013-06-30 20:26:00,
2013-06-30 15:31:00,76.1,53.8,30.70,NNE,29,10.4,10.4,46,0.00,,,0.00,WeatherDisplay:10.36,2013-06-30 20:31:00,
2013-06-30 15:36:00,75.9,54.2,29.88,NE,44,7.4,7.4,47,0.00,,,0.00,WeatherDisplay:10.36,2013-06-30 20:36:00,
2013-06-30 15:41:00,75.9,54.8,29.88,North,351,6.9,6.9,48,0.00,,,0.00,WeatherDisplay:10.36,2013-06-30 20:41:00,
2013-06-30 15:46:00,76.1,54.4,29.88,NE,42,6.9,6.9,47,0.00,,,0.00,WeatherDisplay:10.36,2013-06-30 20:46:00,
2013-06-30 15:51:00,76.1,54.4,29.88,NNE,27,0.0,0.0,47,0.00,,,0.00,WeatherDisplay:10.36,2013-06-30 20:51:00,
2013-06-30 15:56:00,76.5,55.3,29.88,NE,43,5.8,0.0,48,0.00,,,0.00,WeatherDisplay:10.36,2013-06-30 20:56:00,
2013-06-30 16:01:00,76.5,54.1,29.88,North,351,5.4,5.4,46,0.00,,,0.00,WeatherDisplay:10.36,2013-06-30 21:01:00,
2013-06-30 16:06:00,76.5,54.1,29.88,NE,44,5.8,5.8,46,0.00,,,0.00,WeatherDisplay:10.36,2013-06-30 21:06:00,
2013-06-30 16:11:00,76.6,53.7,29.88,West,267,5.8,5.8,45,0.00,,,0.00,WeatherDisplay:10.36,2013-06-30 21:11:00,
2013-06-30 16:16:00,77.0,54.0,29.88,NE,44,6.9,6.9,45,0.00,,,0.00,WeatherDisplay:10.36,2013-06-30 21:16:00,
2013-06-30 16:21:00,77.2,54.8,29.88,North,351,5.8,5.8,46,0.00,,,0.00,WeatherDisplay:10.36,2013-06-30 21:21:00,
2013-06-30 16:26:00,77.2,51.0,29.88,North,351,10.4,10.4,40,0.00,,,0.00,WeatherDisplay:10.36,2013-06-30 21:26:00,
2013-06-30 16:31:00,77.0,51.5,29.88,North,351,5.8,5.8,41,0.00,,,0.00,WeatherDisplay:10.36,2013-06-30 21:31:00,
2013-06-30 16:36:00,76.8,51.3,30.76,NE,43,10.5,10.5,41,0.00,,,0.00,WeatherDisplay:10.36,2013-06-30 21:36:00,
2013-06-30 16:41:00,76.8,51.3,30.76,NE,42,6.9,0.0,41,0.00,,,0.00,WeatherDisplay:10.36,2013-06-30 21:41:00,
2013-06-30 16:46:00,77.0,51.5,30.76,NE,44,6.7,6.7,41,0.00,,,0.00,WeatherDisplay:10.36,2013-06-30 21:46:00,
2013-06-30 16:51:00,77.0,51.5,29.88,NE,43,6.9,6.9,41,0.00,,,0.00,WeatherDisplay:10.36,2013-06-30 21:51:00,
2013-06-30 16:56:00,77.2,51.7,29.88,North,351,0.0,0.0,41,0.00,,,0.00,WeatherDisplay:10.36,2013-06-30 21:56:00,
2013-06-30 17:01:00,77.2,51.7,29.88,North,351,0.0,0.0,41,0.00,,,0.00,WeatherDisplay:10.36,2013-06-30 22:01:00,
2013-06-30 17:06:00,77.2,51.7,29.88,North,351,0.0,0.0,41,0.00,,,0.00,WeatherDisplay:10.36,2013-06-30 22:06:00,
2013-06-30 17:11:00,77.2,51.7,29.88,North,351,0.0,0.0,41,0.00,,,0.00,WeatherDisplay:10.36,2013-06-30 22:11:00,
2013-06-30 17:17:00,77.2,51.7,29.88,North,351,0.0,0.0,41,0.00,,,0.00,WeatherDisplay:10.36,2013-06-30 22:17:00,
2013-06-30 17:22:00,77.2,51.7,29.88,North,351,0.0,0.0,41,0.00,,,0.00,WeatherDisplay:10.36,2013-06-30 22:22:00,
2013-06-30 17:27:00,77.2,51.7,29.88,North,351,0.0,0.0,41,0.00,,,0.00,WeatherDisplay:10.36,2013-06-30 22:27:00,
2013-06-30 17:32:00,77.2,51.7,29.88,North,351,0.0,0.0,41,0.00,,,0.00,WeatherDisplay:10.36,2013-06-30 22:32:00,
2013-06-30 17:37:00,77.2,51.7,29.88,North,351,0.0,0.0,41,0.00,,,0.00,WeatherDisplay:10.36,2013-06-30 22:37:00,
2013-06-30 17:42:00,77.2,51.7,29.88,North,351,0.0,0.0,41,0.00,,,0.00,WeatherDisplay:10.36,2013-06-30 22:42:00,
2013-06-30 17:47:00,77.2,51.7,29.88,North,351,0.0,0.0,41,0.00,,,0.00,WeatherDisplay:10.36,2013-06-30 22:47:00,
2013-06-30 17:52:00,77.2,51.7,29.88,North,351,0.0,0.0,41,0.00,,,0.00,WeatherDisplay:10.36,2013-06-30 22:52:00,
2013-06-30 17:57:00,77.2,51.7,29.88,North,351,0.0,0.0,41,0.00,,,0.00,WeatherDisplay:10.36,2013-06-30 22:57:00,
2013-06-30 18:02:00,77.2,51.7,29.88,North,351,0.0,0.0,41,0.00,,,0.00,WeatherDisplay:10.36,2013-06-30 23:02:00,
2013-06-30 18:07:00,77.2,51.7,29.88,North,351,0.0,0.0,41,0.00,,,0.00,WeatherDisplay:10.36,2013-06-30 23:07:00,
2013-06-30 18:12:00,77.2,51.7,29.88,North,351,0.0,0.0,41,0.00,,,0.00,WeatherDisplay:10.36,2013-06-30 23:12:00,
2013-06-30 18:17:00,77.2,51.7,29.88,North,351,0.0,0.0,41,0.00,,,0.00,WeatherDisplay:10.36,2013-06-30 23:17:00,
2013-06-30 18:22:00,77.2,51.7,29.88,North,351,0.0,0.0,41,0.00,,,0.00,WeatherDisplay:10.36,2013-06-30 23:22:00,
2013-06-30 18:27:00,77.2,51.7,29.88,North,351,0.0,0.0,41,0.00,,,0.00,WeatherDisplay:10.36,2013-06-30 23:27:00,
2013-06-30 18:33:00,77.2,51.7,29.88,North,351,0.0,0.0,41,0.00,,,0.00,WeatherDisplay:10.36,2013-06-30 23:33:00,
2013-06-30 18:38:00,77.2,51.7,29.88,North,351,0.0,0.0,41,0.00,,,0.00,WeatherDisplay:10.36,2013-06-30 23:38:00,
2013-06-30 18:43:00,77.2,51.7,29.88,North,351,0.0,0.0,41,0.00,,,0.00,WeatherDisplay:10.36,2013-06-30 23:43:00,
2013-06-30 18:48:00,77.2,51.7,29.88,North,351,0.0,0.0,41,0.00,,,0.00,WeatherDisplay:10.36,2013-06-30 23:48:00,
2013-06-30 18:53:00,77.2,51.7,29.88,North,351,0.0,0.0,41,0.00,,,0.00,WeatherDisplay:10.36,2013-06-30 23:53:00,
2013-06-30 18:58:00,77.2,51.7,29.88,North,351,0.0,0.0,41,0.00,,,0.00,WeatherDisplay:10.36,2013-06-30 23:58:00,
2013-06-30 19:03:00,77.2,51.7,29.88,North,351,0.0,0.0,41,0.00,,,0.00,WeatherDisplay:10.36,2013-07-01 00:03:00,
2013-06-30 19:08:00,77.2,51.7,29.88,North,351,0.0,0.0,41,0.00,,,0.00,WeatherDisplay:10.36,2013-07-01 00:08:00,
2013-06-30 19:13:00,77.2,51.7,29.88,North,351,0.0,0.0,41,0.00,,,0.00,WeatherDisplay:10.36,2013-07-01 00:13:00,
2013-06-30 19:18:00,77.2,51.7,29.88,North,351,0.0,0.0,41,0.00,,,0.00,WeatherDisplay:10.36,2013-07-01 00:18:00,
2013-06-30 19:23:00,77.2,51.7,29.88,North,351,0.0,0.0,41,0.00,,,0.00,WeatherDisplay:10.36,2013-07-01 00:23:00,
2013-06-30 19:28:00,77.2,51.7,29.88,North,351,0.0,0.0,41,0.00,,,0.00,WeatherDisplay:10.36,2013-07-01 00:28:00,
2013-06-30 19:33:00,77.2,51.7,29.88,North,351,0.0,0.0,41,0.00,,,0.00,WeatherDisplay:10.36,2013-07-01 00:33:00,
2013-06-30 19:38:00,77.2,51.7,29.88,North,351,0.0,0.0,41,0.00,,,0.00,WeatherDisplay:10.36,2013-07-01 00:38:00,
2013-06-30 19:43:00,77.2,51.7,29.88,North,351,0.0,0.0,41,0.00,,,0.00,WeatherDisplay:10.36,2013-07-01 00:43:00,
2013-06-30 19:48:00,77.2,51.7,29.88,North,351,0.0,0.0,41,0.00,,,0.00,WeatherDisplay:10.36,2013-07-01 00:48:00,
2013-06-30 19:53:00,77.2,51.7,29.88,North,351,0.0,0.0,41,0.00,,,0.00,WeatherDisplay:10.36,2013-07-01 00:53:00,
2013-06-30 19:58:00,77.2,51.7,29.88,North,351,0.0,0.0,41,0.00,,,0.00,WeatherDisplay:10.36,2013-07-01 00:58:00,
2013-06-30 20:03:00,77.2,51.7,29.88,North,351,0.0,0.0,41,0.00,,,0.00,WeatherDisplay:10.36,2013-07-01 01:03:00,
2013-06-30 20:08:00,77.2,51.7,29.88,North,351,0.0,0.0,41,0.00,,,0.00,WeatherDisplay:10.36,2013-07-01 01:08:00,
2013-06-30 20:13:00,77.2,51.7,29.88,North,351,0.0,0.0,41,0.00,,,0.00,WeatherDisplay:10.36,2013-07-01 01:13:00,
2013-06-30 20:18:00,77.2,51.7,29.88,North,351,0.0,0.0,41,0.00,,,0.00,WeatherDisplay:10.36,2013-07-01 01:18:00,
2013-06-30 20:23:00,77.2,51.7,29.88,North,351,0.0,0.0,41,0.00,,,0.00,WeatherDisplay:10.36,2013-07-01 01:23:00,
2013-06-30 20:28:00,77.2,51.7,29.88,North,351,0.0,0.0,41,0.00,,,0.00,WeatherDisplay:10.36,2013-07-01 01:28:00,
2013-06-30 20:33:00,77.2,51.7,29.88,North,351,0.0,0.0,41,0.00,,,0.00,WeatherDisplay:10.36,2013-07-01 01:33:00,
2013-06-30 20:38:00,77.2,51.7,29.88,North,351,0.0,0.0,41,0.00,,,0.00,WeatherDisplay:10.36,2013-07-01 01:38:00,
2013-06-30 20:43:00,77.2,51.7,29.88,North,351,0.0,0.0,41,0.00,,,0.00,WeatherDisplay:10.36,2013-07-01 01:43:00,
2013-06-30 20:48:00,77.2,51.7,29.88,North,351,0.0,0.0,41,0.00,,,0.00,WeatherDisplay:10.36,2013-07-01 01:48:00,
2013-06-30 20:53:00,77.2,51.7,29.88,North,351,0.0,0.0,41,0.00,,,0.00,WeatherDisplay:10.36,2013-07-01 01:53:00,
2013-06-30 20:59:00,77.2,51.7,29.88,North,351,0.0,0.0,41,0.00,,,0.00,WeatherDisplay:10.36,2013-07-01 01:59:00,
2013-06-30 21:04:00,77.2,51.7,29.88,North,351,0.0,0.0,41,0.00,,,0.00,WeatherDisplay:10.36,2013-07-01 02:04:00,
2013-06-30 21:09:00,77.2,51.7,29.88,North,351,0.0,0.0,41,0.00,,,0.00,WeatherDisplay:10.36,2013-07-01 02:09:00,
2013-06-30 21:14:00,77.2,51.7,29.88,North,351,0.0,0.0,41,0.00,,,0.00,WeatherDisplay:10.36,2013-07-01 02:14:00,
2013-06-30 21:19:00,77.2,51.7,29.88,North,351,0.0,0.0,41,0.00,,,0.00,WeatherDisplay:10.36,2013-07-01 02:19:00,
2013-06-30 21:24:00,77.2,51.7,29.88,North,351,0.0,0.0,41,0.00,,,0.00,WeatherDisplay:10.36,2013-07-01 02:24:00,
2013-06-30 21:29:00,77.2,51.7,29.88,North,351,0.0,0.0,41,0.00,,,0.00,WeatherDisplay:10.36,2013-07-01 02:29:00,
2013-06-30 21:34:00,77.2,51.7,29.88,North,351,0.0,0.0,41,0.00,,,0.00,WeatherDisplay:10.36,2013-07-01 02:34:00,
2013-06-30 21:39:00,77.2,51.7,29.88,North,351,0.0,0.0,41,0.00,,,0.00,WeatherDisplay:10.36,2013-07-01 02:39:00,
2013-06-30 21:44:00,77.2,51.7,29.88,North,351,0.0,0.0,41,0.00,,,0.00,WeatherDisplay:10.36,2013-07-01 02:44:00,
2013-06-30 21:49:00,77.2,51.7,29.88,North,351,0.0,0.0,41,0.00,,,0.00,WeatherDisplay:10.36,2013-07-01 02:49:00,
2013-06-30 21:55:00,77.2,51.7,29.88,North,351,0.0,0.0,41,0.00,,,0.00,WeatherDisplay:10.36,2013-07-01 02:55:00,
2013-06-30 22:00:00,77.2,51.7,29.88,North,351,0.0,0.0,41,0.00,,,0.00,WeatherDisplay:10.36,2013-07-01 03:00:00,
2013-06-30 22:05:00,77.2,51.7,29.88,North,351,0.0,0.0,41,0.00,,,0.00,WeatherDisplay:10.36,2013-07-01 03:05:00,
2013-06-30 22:10:00,77.2,51.7,29.88,North,351,0.0,0.0,41,0.00,,,0.00,WeatherDisplay:10.36,2013-07-01 03:10:00,
2013-06-30 22:15:00,77.2,51.7,29.88,North,351,0.0,0.0,41,0.00,,,0.00,WeatherDisplay:10.36,2013-07-01 03:15:00,
2013-06-30 22:20:00,77.2,51.7,29.88,North,351,0.0,0.0,41,0.00,,,0.00,WeatherDisplay:10.36,2013-07-01 03:20:00,
2013-06-30 22:25:00,77.2,51.7,29.88,North,351,0.0,0.0,41,0.00,,,0.00,WeatherDisplay:10.36,2013-07-01 03:25:00,
2013-06-30 22:30:00,77.2,51.7,29.88,North,351,0.0,0.0,41,0.00,,,0.00,WeatherDisplay:10.36,2013-07-01 03:30:00,
2013-06-30 22:35:00,77.2,51.7,29.88,North,351,0.0,0.0,41,0.00,,,0.00,WeatherDisplay:10.36,2013-07-01 03:35:00,
2013-06-30 22:40:00,77.2,51.7,29.88,North,351,0.0,0.0,41,0.00,,,0.00,WeatherDisplay:10.36,2013-07-01 03:40:00,
2013-06-30 22:45:00,77.2,51.7,29.88,North,351,0.0,0.0,41,0.00,,,0.00,WeatherDisplay:10.36,2013-07-01 03:45:00,
2013-06-30 22:50:00,77.2,51.7,29.88,North,351,0.0,0.0,41,0.00,,,0.00,WeatherDisplay:10.36,2013-07-01 03:50:00,
2013-06-30 22:55:00,77.2,51.7,29.88,North,351,0.0,0.0,41,0.00,,,0.00,WeatherDisplay:10.36,2013-07-01 03:55:00,
2013-06-30 23:00:00,77.2,51.7,29.88,North,351,0.0,0.0,41,0.00,,,0.00,WeatherDisplay:10.36,2013-07-01 04:00:00,
2013-06-30 23:01:00,77.2,51.7,29.88,North,351,0.0,0.0,41,0.00,,,0.00,WeatherDisplay:10.36,2013-07-01 04:01:00,
2013-06-30 23:02:00,77.2,51.7,29.88,North,351,0.0,0.0,41,0.00,,,0.00,WeatherDisplay:10.36,2013-07-01 04:02:00,
2013-06-30 23:03:00,77.2,51.7,29.88,North,351,0.0,0.0,41,0.00,,,0.00,WeatherDisplay:10.36,2013-07-01 04:03:00,
2013-06-30 23:04:00,77.2,51.7,29.88,North,351,0.0,0.0,41,0.00,,,0.00,WeatherDisplay:10.36,2013-07-01 04:04:00,
2013-06-30 23:07:00,77.2,51.7,29.88,North,351,0.0,0.0,41,0.00,,,0.00,WeatherDisplay:10.36,2013-07-01 04:07:00,
2013-06-30 23:12:00,77.2,51.7,29.88,North,351,0.0,0.0,41,0.00,,,0.00,WeatherDisplay:10.36,2013-07-01 04:12:00,
2013-06-30 23:17:00,77.2,51.7,29.88,North,351,0.0,0.0,41,0.00,,,0.00,WeatherDisplay:10.36,2013-07-01 04:17:00,
2013-06-30 23:22:00,77.2,51.7,29.88,North,351,0.0,0.0,41,0.00,,,0.00,WeatherDisplay:10.36,2013-07-01 04:22:00,
2013-06-30 23:27:00,77.2,51.7,29.88,North,351,0.0,0.0,41,0.00,,,0.00,WeatherDisplay:10.36,2013-07-01 04:27:00,
2013-06-30 23:32:00,77.2,51.7,29.88,North,351,0.0,0.0,41,0.00,,,0.00,WeatherDisplay:10.36,2013-07-01 04:32:00,
2013-06-30 23:37:00,77.2,51.7,29.88,North,351,0.0,0.0,41,0.00,,,0.00,WeatherDisplay:10.36,2013-07-01 04:37:00,
2013-06-30 23:43:00,77.2,51.7,29.88,North,351,0.0,0.0,41,0.00,,,0.00,WeatherDisplay:10.36,2013-07-01 04:43:00,
2013-06-30 23:48:00,77.2,51.7,29.88,North,351,0.0,0.0,41,0.00,,,0.00,WeatherDisplay:10.36,2013-07-01 04:48:00,
2013-06-30 23:53:00,77.2,51.7,29.88,North,351,0.0,0.0,41,0.00,,,0.00,WeatherDisplay:10.36,2013-07-01 04:53:00,
2013-06-30 23:58:00,77.2,51.7,29.88,North,351,0.0,0.0,41,0.00,,,0.00,WeatherDisplay:10.36,2013-07-01 04:58:00,